createdAt,value
2022-11-14T00:00:35.258Z,44.07
2022-11-14T00:05:42.557Z,52.05
2022-11-14T00:10:49.394Z,45.28
2022-11-14T00:15:58.742Z,42.60
2022-11-14T00:21:00.824Z,45.97
2022-11-14T00:26:02.860Z,44.43
2022-11-14T00:31:05.061Z,35.20
2022-11-14T00:36:07.260Z,54.40
2022-11-14T00:41:09.341Z,74.20
2022-11-14T00:46:11.368Z,41.33
2022-11-14T00:51:13.406Z,44.83
2022-11-14T00:56:15.790Z,41.53
2022-11-14T01:01:17.991Z,57.33
2022-11-14T01:06:20.539Z,41.73
2022-11-14T01:11:22.895Z,46.95
2022-11-14T01:16:24.928Z,42.87
2022-11-14T01:21:26.969Z,36.05
2022-11-14T01:26:28.993Z,38.72
2022-11-14T01:31:31.013Z,35.17
2022-11-14T01:36:33.022Z,40.63
2022-11-14T01:41:36.246Z,39.67
2022-11-14T01:46:41.681Z,53.38
2022-11-14T01:51:49.491Z,48.45
2022-11-14T01:56:57.925Z,36.63
2022-11-14T02:02:06.401Z,47.58
2022-11-14T02:07:10.227Z,36.10
2022-11-14T02:12:14.779Z,47.50
2022-11-14T02:17:33.456Z,36.53
2022-11-14T02:22:35.810Z,36.80
2022-11-14T02:27:39.452Z,30.30
2022-11-14T02:38:03.545Z,59.75
2022-11-14T02:43:05.583Z,28.40
2022-11-14T02:48:07.672Z,47.10
2022-11-14T02:53:09.994Z,36.40
2022-11-14T02:58:12.008Z,45.73
2022-11-14T03:03:14.140Z,32.05
2022-11-14T03:08:16.169Z,28.83
2022-11-14T03:13:18.185Z,27.70
2022-11-14T03:18:20.466Z,32.15
2022-11-14T03:23:22.539Z,25.13
2022-11-14T03:28:24.576Z,47.00
2022-11-14T03:33:26.645Z,41.65
2022-11-14T03:38:29.606Z,27.47
2022-11-14T03:43:34.307Z,40.10
2022-11-14T03:48:36.362Z,39.53
2022-11-14T03:53:38.412Z,34.28
2022-11-14T03:58:40.486Z,29.52
2022-11-14T04:03:42.642Z,31.27
2022-11-14T04:08:44.958Z,37.00
2022-11-14T04:13:47.007Z,34.93
2022-11-14T04:18:49.087Z,41.80
2022-11-14T04:23:51.122Z,32.95
2022-11-14T04:28:53.146Z,39.30
2022-11-14T04:33:55.148Z,30.50
2022-11-14T04:38:57.137Z,36.03
2022-11-14T04:43:59.196Z,35.83
2022-11-14T04:49:01.286Z,29.08
2022-11-14T04:54:03.488Z,24.90
2022-11-14T04:59:05.517Z,30.65
2022-11-14T05:04:07.502Z,33.20
2022-11-14T05:09:09.682Z,28.42
2022-11-14T05:14:11.722Z,32.15
2022-11-14T05:19:13.818Z,43.70
2022-11-14T05:24:15.886Z,26.52
2022-11-14T05:29:18.101Z,24.67
2022-11-14T05:34:20.146Z,38.47
2022-11-14T05:39:22.183Z,31.08
2022-11-14T05:44:24.237Z,26.23
2022-11-14T05:49:26.262Z,37.90
2022-11-14T05:54:28.530Z,32.53
2022-11-14T05:59:30.770Z,33.17
2022-11-14T06:04:32.791Z,47.03
2022-11-14T06:09:34.794Z,44.37
2022-11-14T06:14:36.841Z,26.80
2022-11-14T06:19:38.919Z,25.37
2022-11-14T06:24:40.937Z,26.40
2022-11-14T06:29:42.944Z,30.98
2022-11-14T06:34:44.929Z,23.93
2022-11-14T06:39:46.929Z,22.55
2022-11-14T06:44:48.918Z,20.43
2022-11-14T06:49:50.957Z,31.20
2022-11-14T06:54:53.126Z,26.10
2022-11-14T06:59:55.148Z,31.13
2022-11-14T07:04:57.181Z,25.35
2022-11-14T07:09:59.259Z,27.67
2022-11-14T07:15:01.304Z,28.33
2022-11-14T07:20:03.812Z,28.08
2022-11-14T07:25:06.360Z,25.93
2022-11-14T07:30:08.738Z,26.85
2022-11-14T07:35:10.747Z,26.67
2022-11-14T07:40:12.744Z,26.27
2022-11-14T07:45:15.713Z,23.23
2022-11-14T07:50:20.377Z,25.43
2022-11-14T07:55:22.981Z,30.92
2022-11-14T08:00:25.275Z,31.77
2022-11-14T08:05:27.289Z,30.25
2022-11-14T08:10:33.408Z,34.78
2022-11-14T08:15:35.902Z,29.90
2022-11-14T08:20:37.941Z,31.95
2022-11-14T08:25:40.709Z,32.77
2022-11-14T08:30:42.744Z,29.73
2022-11-14T08:35:44.796Z,33.47
2022-11-14T08:40:46.849Z,32.17
2022-11-14T08:45:49.032Z,30.67
2022-11-14T08:50:51.098Z,30.60
2022-11-14T08:55:53.102Z,33.95
2022-11-14T09:00:55.309Z,34.60
2022-11-14T09:05:57.491Z,34.13
2022-11-14T09:11:05.723Z,31.55
2022-11-14T09:16:08.518Z,33.93
2022-11-14T09:21:10.731Z,34.88
2022-11-14T09:26:12.755Z,32.25
2022-11-14T09:31:15.063Z,31.13
2022-11-14T09:36:18.612Z,29.77
2022-11-14T09:41:32.541Z,29.77
2022-11-14T09:46:40.423Z,27.58
2022-11-14T09:51:51.110Z,31.35
2022-11-14T09:56:54.319Z,27.63
2022-11-14T10:02:15.236Z,29.37
2022-11-14T10:07:42.023Z,27.87
2022-11-14T10:12:58.566Z,26.80
2022-11-14T10:18:24.220Z,27.73
2022-11-14T10:23:38.340Z,27.97
2022-11-14T10:28:59.374Z,29.00
2022-11-14T10:34:39.169Z,28.13
2022-11-14T10:39:50.044Z,27.62
2022-11-14T10:45:18.259Z,27.02
2022-11-14T10:50:24.756Z,27.03
2022-11-14T10:55:57.393Z,27.83
2022-11-14T11:00:49.100Z,27.33
2022-11-14T11:06:03.089Z,28.95
2022-11-14T11:11:24.148Z,27.27
2022-11-14T11:16:28.318Z,28.37
2022-11-14T11:21:48.160Z,27.37
2022-11-14T11:27:17.527Z,27.23
2022-11-14T11:32:26.540Z,30.98
2022-11-14T11:37:33.089Z,27.08
2022-11-14T11:48:06.177Z,29.20
2022-11-14T11:53:10.919Z,28.20
2022-11-14T11:58:47.306Z,29.85
2022-11-14T12:03:52.139Z,29.63
2022-11-14T12:08:59.903Z,33.97
2022-11-14T12:14:11.062Z,31.85
2022-11-14T12:19:26.998Z,27.97
2022-11-14T12:24:53.975Z,28.85
2022-11-14T12:30:18.060Z,29.70
2022-11-14T12:35:51.392Z,30.77
2022-11-14T12:41:00.266Z,20.48
2022-11-14T12:46:20.545Z,16.13
2022-11-14T12:51:28.176Z,14.57
2022-11-14T12:56:33.206Z,13.98
2022-11-14T13:01:53.749Z,16.87
2022-11-14T13:07:28.597Z,18.15
2022-11-14T13:12:54.601Z,17.30
2022-11-14T13:18:42.850Z,17.02
2022-11-14T13:23:44.834Z,17.12
2022-11-14T13:28:51.639Z,16.53
2022-11-14T13:34:00.136Z,17.98
2022-11-14T13:39:29.988Z,16.10
2022-11-14T13:44:53.666Z,16.62
2022-11-14T13:50:10.471Z,18.55
2022-11-14T13:55:25.809Z,17.30
2022-11-14T14:00:41.053Z,18.45
2022-11-14T14:06:17.276Z,17.50
2022-11-14T14:11:28.288Z,17.30
2022-11-14T14:16:55.996Z,19.85
2022-11-14T14:22:09.857Z,20.20
2022-11-14T14:27:32.272Z,18.50
2022-11-14T14:32:34.414Z,18.63
2022-11-14T14:37:36.485Z,19.45
2022-11-14T14:42:40.703Z,19.83
2022-11-14T14:47:46.492Z,20.73
2022-11-14T14:52:57.547Z,21.92
2022-11-14T14:58:20.988Z,21.50
2022-11-14T15:03:29.166Z,21.55
2022-11-14T15:08:38.699Z,21.40
2022-11-14T15:13:42.263Z,26.50
2022-11-14T15:18:44.960Z,25.08
2022-11-14T15:24:02.508Z,23.13
2022-11-14T15:29:07.054Z,22.50
2022-11-14T15:34:41.352Z,22.50
2022-11-14T15:39:44.970Z,26.27
2022-11-14T15:44:48.995Z,28.85
2022-11-14T15:50:00.020Z,26.10
2022-11-14T15:55:02.593Z,24.00
2022-11-14T16:00:05.656Z,26.45
2022-11-14T16:05:12.371Z,30.57
2022-11-14T16:10:15.732Z,31.70
2022-11-14T16:15:19.367Z,34.90
2022-11-14T16:20:29.509Z,34.20
2022-11-14T16:25:32.149Z,41.00
2022-11-14T16:30:34.455Z,39.00
2022-11-14T16:35:36.765Z,35.33
2022-11-14T16:40:43.892Z,33.93
2022-11-14T16:45:45.925Z,39.13
2022-11-14T16:50:50.778Z,35.17
2022-11-14T16:55:54.980Z,39.03
2022-11-14T17:00:57.037Z,36.20
2022-11-14T17:05:59.137Z,45.27
2022-11-14T17:11:01.143Z,40.30
2022-11-14T17:16:04.782Z,40.55
2022-11-14T17:21:08.845Z,41.37
2022-11-14T17:26:12.871Z,39.17
2022-11-14T17:31:15.967Z,37.03
2022-11-14T17:36:18.160Z,38.65
2022-11-14T17:41:20.571Z,39.65
2022-11-14T17:46:23.149Z,39.03
2022-11-14T17:51:28.001Z,40.17
2022-11-14T17:56:30.026Z,44.47
2022-11-14T18:01:32.146Z,48.00
2022-11-14T18:06:34.439Z,43.55
2022-11-14T18:11:36.517Z,45.57
2022-11-14T18:17:05.330Z,45.83
2022-11-14T18:22:00.714Z,45.63
2022-11-14T18:27:03.248Z,46.67
2022-11-14T18:32:05.563Z,46.42
2022-11-14T18:37:07.898Z,45.47
2022-11-14T18:42:09.990Z,47.88
2022-11-14T18:47:12.016Z,52.77
2022-11-14T18:52:17.419Z,52.60
2022-11-14T18:57:19.887Z,51.13
2022-11-14T19:02:21.961Z,57.83
2022-11-14T19:07:25.338Z,55.92
2022-11-14T19:12:27.379Z,55.07
2022-11-14T19:17:29.416Z,50.55
2022-11-14T19:22:31.474Z,51.80
2022-11-14T19:27:33.486Z,55.37
2022-11-14T19:32:35.578Z,57.72
2022-11-14T19:37:37.641Z,57.67
2022-11-14T19:42:39.725Z,55.15
2022-11-14T19:47:41.734Z,62.75
2022-11-14T19:52:43.751Z,62.23
2022-11-14T19:57:45.840Z,63.25
2022-11-14T20:02:47.882Z,65.33
2022-11-14T20:07:49.887Z,63.75
2022-11-14T20:12:51.928Z,66.32
2022-11-14T20:17:53.954Z,72.93
2022-11-14T20:22:55.956Z,73.55
2022-11-14T20:27:57.965Z,75.80
2022-11-14T20:33:00.024Z,80.22
2022-11-14T20:38:04.722Z,85.38
2022-11-14T20:43:08.139Z,81.20
2022-11-14T20:48:10.142Z,59.63
2022-11-14T20:53:12.171Z,55.37
2022-11-14T20:58:14.193Z,60.83
2022-11-14T21:03:16.966Z,65.62
2022-11-14T21:08:19.074Z,49.37
2022-11-14T21:13:40.698Z,50.25
2022-11-14T21:18:47.721Z,47.30
2022-11-14T21:23:50.967Z,48.33
2022-11-14T21:28:59.094Z,43.17
2022-11-14T21:34:03.561Z,44.17
2022-11-14T21:39:06.035Z,39.97
2022-11-14T21:44:13.016Z,41.73
2022-11-14T21:49:18.374Z,46.17
2022-11-14T21:54:20.400Z,41.15
2022-11-14T21:59:26.485Z,40.57
2022-11-14T22:04:29.291Z,43.22
2022-11-14T22:09:32.082Z,40.43
2022-11-14T22:14:34.104Z,41.00
2022-11-14T22:19:36.109Z,37.10
2022-11-14T22:24:38.155Z,42.43
2022-11-14T22:29:40.387Z,40.92
2022-11-14T22:34:42.383Z,35.40
2022-11-14T22:39:44.661Z,40.47
2022-11-14T22:44:46.650Z,39.53
2022-11-14T22:49:48.656Z,37.43
2022-11-14T22:54:50.703Z,32.92
2022-11-14T22:59:52.762Z,32.83
2022-11-14T23:04:55.904Z,33.90
2022-11-14T23:09:57.978Z,36.55
2022-11-14T23:14:59.996Z,38.10
2022-11-14T23:20:02.033Z,43.67
2022-11-14T23:25:04.291Z,41.47
2022-11-14T23:30:07.031Z,37.70
2022-11-14T23:35:09.259Z,42.10
2022-11-14T23:40:11.617Z,42.93
2022-11-14T23:45:13.686Z,40.92
2022-11-14T23:50:15.767Z,45.60
2022-11-14T23:55:17.796Z,42.45
